createdAt,value
2022-11-08T00:04:02.862Z,5.83
2022-11-08T00:09:29.496Z,5.89
2022-11-08T00:14:37.396Z,5.91
2022-11-08T00:19:45.674Z,5.94
2022-11-08T00:24:55.474Z,5.96
2022-11-08T00:30:03.591Z,5.99
2022-11-08T00:35:11.204Z,6.01
2022-11-08T00:40:19.287Z,6.04
2022-11-08T00:45:25.947Z,6.06
2022-11-08T00:50:32.208Z,6.09
2022-11-08T00:55:39.934Z,6.14
2022-11-08T01:00:46.522Z,6.14
2022-11-08T01:05:55.542Z,6.21
2022-11-08T01:11:06.618Z,6.27
2022-11-08T01:16:16.357Z,6.33
2022-11-08T01:21:23.468Z,6.37
2022-11-08T01:26:32.097Z,6.42
2022-11-08T01:31:38.305Z,6.45
2022-11-08T01:36:45.194Z,6.50
2022-11-08T01:41:53.179Z,6.57
2022-11-08T01:46:59.415Z,6.61
2022-11-08T01:52:24.638Z,6.63
2022-11-08T01:57:38.277Z,6.67
2022-11-08T02:02:47.461Z,6.70
2022-11-08T02:07:56.459Z,6.77
2022-11-08T02:13:05.881Z,6.75
2022-11-08T02:18:16.111Z,6.76
2022-11-08T02:23:28.861Z,6.80
2022-11-08T02:28:42.237Z,6.82
2022-11-08T02:33:49.549Z,6.84
2022-11-08T02:38:59.408Z,6.88
2022-11-08T02:44:07.116Z,6.90
2022-11-08T02:49:13.184Z,6.93
2022-11-08T02:54:19.228Z,6.94
2022-11-08T02:59:26.658Z,6.98
2022-11-08T03:04:32.878Z,6.95
2022-11-08T03:09:39.028Z,6.94
2022-11-08T03:14:46.782Z,6.92
2022-11-08T03:19:53.998Z,6.92
2022-11-08T03:25:00.128Z,6.85
2022-11-08T03:30:09.933Z,6.82
2022-11-08T03:35:16.532Z,6.76
2022-11-08T03:40:23.124Z,6.74
2022-11-08T03:45:30.636Z,6.70
2022-11-08T03:50:37.003Z,6.71
2022-11-08T03:55:43.258Z,6.69
2022-11-08T04:00:50.962Z,6.67
2022-11-08T04:06:01.076Z,6.67
2022-11-08T04:11:21.248Z,6.67
2022-11-08T04:16:28.932Z,6.68
2022-11-08T04:21:35.060Z,6.71
2022-11-08T04:26:42.203Z,6.72
2022-11-08T04:31:49.684Z,6.76
2022-11-08T04:36:55.913Z,6.76
2022-11-08T04:42:02.595Z,6.79
2022-11-08T04:47:10.506Z,6.79
2022-11-08T04:52:18.363Z,6.76
2022-11-08T04:57:24.380Z,6.74
2022-11-08T05:02:32.198Z,6.69
2022-11-08T05:07:38.828Z,6.66
2022-11-08T05:12:45.067Z,6.59
2022-11-08T05:17:53.080Z,6.57
2022-11-08T05:23:20.659Z,6.57
2022-11-08T05:28:26.795Z,6.57
2022-11-08T05:33:34.555Z,6.60
2022-11-08T05:38:42.472Z,6.61
2022-11-08T05:43:51.967Z,6.64
2022-11-08T05:48:59.564Z,6.69
2022-11-08T05:54:05.967Z,6.75
2022-11-08T05:59:12.365Z,6.76
2022-11-08T06:04:20.100Z,6.79
2022-11-08T06:09:26.532Z,6.82
2022-11-08T06:14:32.822Z,6.88
2022-11-08T06:19:40.546Z,6.91
2022-11-08T06:24:46.808Z,6.98
2022-11-08T06:29:52.979Z,7.06
2022-11-08T06:35:00.669Z,7.12
2022-11-08T06:40:08.314Z,7.14
2022-11-08T06:45:14.784Z,7.20
2022-11-08T06:50:22.474Z,7.24
2022-11-08T06:55:28.887Z,7.29
2022-11-08T07:00:35.148Z,7.36
2022-11-08T07:05:42.626Z,7.41
2022-11-08T07:10:48.939Z,7.49
2022-11-08T07:15:58.243Z,7.52
2022-11-08T07:21:06.103Z,7.54
2022-11-08T07:26:13.494Z,7.59
2022-11-08T07:31:19.521Z,7.66
2022-11-08T07:36:27.260Z,7.72
2022-11-08T07:41:33.315Z,7.85
2022-11-08T07:46:39.429Z,7.91
2022-11-08T07:51:47.027Z,7.88
2022-11-08T07:56:55.544Z,7.87
2022-11-08T08:02:26.462Z,7.92
2022-11-08T08:07:59.337Z,7.94
2022-11-08T08:13:06.800Z,7.99
2022-11-08T08:18:41.326Z,8.03
2022-11-08T08:24:13.488Z,8.08
2022-11-08T08:29:37.771Z,8.08
2022-11-08T08:34:56.059Z,8.15
2022-11-08T08:40:19.038Z,8.19
2022-11-08T08:45:37.497Z,8.20
2022-11-08T08:50:44.403Z,8.27
2022-11-08T08:56:13.053Z,8.35
2022-11-08T09:01:41.465Z,8.37
2022-11-08T09:06:47.808Z,8.49
2022-11-08T09:11:57.957Z,8.59
2022-11-08T09:17:04.131Z,8.70
2022-11-08T09:22:10.444Z,8.77
2022-11-08T09:27:18.272Z,8.82
2022-11-08T09:32:46.357Z,8.84
2022-11-08T09:37:53.990Z,8.93
2022-11-08T09:43:27.862Z,9.06
2022-11-08T09:48:38.489Z,9.18
2022-11-08T09:53:51.987Z,9.40
2022-11-08T09:59:04.192Z,9.44
2022-11-08T10:04:17.704Z,9.51
2022-11-08T10:09:49.052Z,9.66
2022-11-08T10:15:17.221Z,9.73
2022-11-08T10:20:39.235Z,9.78
2022-11-08T10:25:50.159Z,9.84
2022-11-08T10:30:58.305Z,9.88
2022-11-08T10:36:11.801Z,9.95
2022-11-08T10:41:23.689Z,10.11
2022-11-08T10:46:42.136Z,10.24
2022-11-08T10:51:51.898Z,10.22
2022-11-08T10:56:58.117Z,10.20
2022-11-08T11:02:17.766Z,10.36
2022-11-08T11:07:34.159Z,10.52
2022-11-08T11:12:40.525Z,10.63
2022-11-08T11:17:48.851Z,10.75
2022-11-08T11:22:55.744Z,10.77
2022-11-08T11:28:02.921Z,10.73
2022-11-08T11:33:26.308Z,10.71
2022-11-08T11:38:45.717Z,10.73
2022-11-08T11:44:06.506Z,10.77
2022-11-08T11:49:22.942Z,10.82
2022-11-08T11:54:32.836Z,10.93
2022-11-08T12:00:02.453Z,11.02
2022-11-08T12:05:40.148Z,11.20
2022-11-08T12:11:18.362Z,11.22
2022-11-08T12:16:35.049Z,11.33
2022-11-08T12:21:51.913Z,11.34
2022-11-08T12:27:08.827Z,11.38
2022-11-08T12:32:42.944Z,11.40
2022-11-08T12:38:09.035Z,11.30
2022-11-08T12:43:31.638Z,11.32
2022-11-08T12:49:07.594Z,11.44
2022-11-08T12:54:30.635Z,11.50
2022-11-08T12:59:42.830Z,11.53
2022-11-08T13:05:03.493Z,11.48
2022-11-08T13:10:24.568Z,11.41
2022-11-08T13:15:30.988Z,11.40
2022-11-08T13:20:45.080Z,11.45
2022-11-08T13:25:55.087Z,11.44
2022-11-08T13:31:11.391Z,11.40
2022-11-08T13:36:34.924Z,11.35
2022-11-08T13:42:04.988Z,11.27
2022-11-08T13:47:53.713Z,11.27
2022-11-08T13:53:10.564Z,11.30
2022-11-08T13:58:37.621Z,11.30
2022-11-08T14:04:25.425Z,11.27
2022-11-08T14:09:44.864Z,11.20
2022-11-08T14:15:05.517Z,11.17
2022-11-08T14:20:35.335Z,11.11
2022-11-08T14:25:42.609Z,11.06
2022-11-08T14:30:51.862Z,10.97
2022-11-08T14:36:01.775Z,10.85
2022-11-08T14:41:09.077Z,10.75
2022-11-08T14:46:30.636Z,10.65
2022-11-08T14:51:37.678Z,10.53
2022-11-08T14:56:46.133Z,10.41
2022-11-08T15:01:54.398Z,10.30
2022-11-08T15:07:02.166Z,10.20
2022-11-08T15:12:16.996Z,10.08
2022-11-08T15:17:37.480Z,9.98
2022-11-08T15:22:47.097Z,9.88
2022-11-08T15:27:57.451Z,9.77
2022-11-08T15:33:06.315Z,9.66
2022-11-08T15:38:31.375Z,9.59
2022-11-08T15:43:43.265Z,9.52
2022-11-08T15:49:00.811Z,9.41
2022-11-08T15:54:08.987Z,9.32
2022-11-08T15:59:21.657Z,9.28
2022-11-08T16:04:31.051Z,9.22
2022-11-08T16:09:39.047Z,9.15
2022-11-08T16:14:48.267Z,9.05
2022-11-08T16:19:57.647Z,8.94
2022-11-08T16:25:06.026Z,8.86
2022-11-08T16:30:18.738Z,8.73
2022-11-08T16:35:28.372Z,8.72
2022-11-08T16:40:35.640Z,8.67
2022-11-08T16:46:04.370Z,8.63
2022-11-08T16:51:20.199Z,8.56
2022-11-08T16:56:27.485Z,8.51
2022-11-08T17:01:37.987Z,8.40
2022-11-08T17:06:46.602Z,8.37
2022-11-08T17:11:54.932Z,8.36
2022-11-08T17:17:02.435Z,8.31
2022-11-08T17:22:11.855Z,8.27
2022-11-08T17:27:20.943Z,8.21
2022-11-08T17:32:27.718Z,8.17
2022-11-08T17:37:37.303Z,8.14
2022-11-08T17:42:45.644Z,8.07
2022-11-08T17:47:52.775Z,8.03
2022-11-08T17:53:01.933Z,8.00
2022-11-08T17:58:08.843Z,7.97
2022-11-08T18:03:20.720Z,7.82
2022-11-08T18:08:32.171Z,7.74
2022-11-08T18:13:40.384Z,7.78
2022-11-08T18:18:48.949Z,7.66
2022-11-08T18:24:00.451Z,7.65
2022-11-08T18:29:09.181Z,7.56
2022-11-08T18:34:16.453Z,7.55
2022-11-08T18:39:25.497Z,7.51
2022-11-08T18:44:32.759Z,7.49
2022-11-08T18:49:40.669Z,7.49
2022-11-08T18:54:49.592Z,7.50
2022-11-08T19:00:01.229Z,7.52
2022-11-08T19:05:12.269Z,7.42
2022-11-08T19:10:23.350Z,7.38
2022-11-08T19:15:30.290Z,7.24
2022-11-08T19:20:38.329Z,7.24
2022-11-08T19:25:55.257Z,7.20
2022-11-08T19:31:05.284Z,7.16
2022-11-08T19:36:18.273Z,7.00
2022-11-08T19:41:30.596Z,7.08
2022-11-08T19:46:39.826Z,6.99
2022-11-08T19:51:47.830Z,6.86
2022-11-08T19:57:05.233Z,6.94
2022-11-08T20:02:13.980Z,6.71
2022-11-08T20:07:21.370Z,6.69
2022-11-08T20:12:33.469Z,6.72
2022-11-08T20:17:40.463Z,6.73
2022-11-08T20:22:49.186Z,6.75
2022-11-08T20:27:59.143Z,6.64
2022-11-08T20:33:13.769Z,6.77
2022-11-08T20:38:21.387Z,6.80
2022-11-08T20:43:30.907Z,6.74
2022-11-08T20:48:42.788Z,6.78
2022-11-08T20:53:51.273Z,6.77
2022-11-08T20:59:00.204Z,6.71
2022-11-08T21:04:09.381Z,6.79
2022-11-08T21:09:49.853Z,6.82
2022-11-08T21:14:52.633Z,6.83
2022-11-08T21:19:59.896Z,6.80
2022-11-08T21:25:08.351Z,6.83
2022-11-08T21:30:18.187Z,6.86
2022-11-08T21:35:25.847Z,6.85
2022-11-08T21:40:33.034Z,6.85
2022-11-08T21:45:41.899Z,6.87
2022-11-08T21:50:48.917Z,6.86
2022-11-08T21:55:59.586Z,6.85
2022-11-08T22:01:11.318Z,6.86
2022-11-08T22:06:18.266Z,6.82
2022-11-08T22:11:25.067Z,6.80
2022-11-08T22:16:32.701Z,6.69
2022-11-08T22:21:43.570Z,6.61
2022-11-08T22:26:51.107Z,6.57
2022-11-08T22:31:59.324Z,6.57
2022-11-08T22:37:05.524Z,6.62
2022-11-08T22:42:11.838Z,6.64
2022-11-08T22:47:19.560Z,6.66
2022-11-08T22:52:25.930Z,6.65
2022-11-08T22:57:32.356Z,6.63
2022-11-08T23:02:39.993Z,6.58
2022-11-08T23:07:46.333Z,6.55
2022-11-08T23:13:22.012Z,6.52
2022-11-08T23:18:30.043Z,6.54
2022-11-08T23:23:54.165Z,6.55
2022-11-08T23:29:17.642Z,6.54
2022-11-08T23:34:25.368Z,6.54
2022-11-08T23:39:31.645Z,6.54
2022-11-08T23:44:37.787Z,6.52
2022-11-08T23:49:45.098Z,6.50
2022-11-08T23:54:51.123Z,6.52
2022-11-08T23:59:57.498Z,6.50
